sensor_id;sensor_type;location;lat;lon;timestamp;P1;durP1;ratioP1;P2;durP2;ratioP2
69970;SDS011;57301;50.328;8.542;2022-11-15T00:00:55;12.60;;;7.50;;
69970;SDS011;57301;50.328;8.542;2022-11-15T00:03:26;13.02;;;7.75;;
69970;SDS011;57301;50.328;8.542;2022-11-15T00:05:54;14.02;;;7.45;;
69970;SDS011;57301;50.328;8.542;2022-11-15T00:08:20;13.15;;;8.15;;
69970;SDS011;57301;50.328;8.542;2022-11-15T00:10:56;13.80;;;8.50;;
69970;SDS011;57301;50.328;8.542;2022-11-15T00:13:23;13.37;;;7.87;;
69970;SDS011;57301;50.328;8.542;2022-11-15T00:15:51;11.77;;;7.63;;
69970;SDS011;57301;50.328;8.542;2022-11-15T00:18:18;13.27;;;8.10;;
69970;SDS011;57301;50.328;8.542;2022-11-15T00:20:45;11.55;;;7.40;;
69970;SDS011;57301;50.328;8.542;2022-11-15T00:23:11;13.18;;;8.05;;
69970;SDS011;57301;50.328;8.542;2022-11-15T00:25:38;14.63;;;7.67;;
69970;SDS011;57301;50.328;8.542;2022-11-15T00:28:04;13.48;;;7.55;;
69970;SDS011;57301;50.328;8.542;2022-11-15T00:30:31;11.75;;;7.75;;
69970;SDS011;57301;50.328;8.542;2022-11-15T00:33:01;10.68;;;7.45;;
69970;SDS011;57301;50.328;8.542;2022-11-15T00:35:31;11.07;;;7.47;;
69970;SDS011;57301;50.328;8.542;2022-11-15T00:37:59;12.17;;;7.43;;
69970;SDS011;57301;50.328;8.542;2022-11-15T00:40:27;11.75;;;7.38;;
69970;SDS011;57301;50.328;8.542;2022-11-15T00:42:53;10.65;;;6.65;;
69970;SDS011;57301;50.328;8.542;2022-11-15T00:45:20;11.30;;;7.20;;
69970;SDS011;57301;50.328;8.542;2022-11-15T00:47:47;11.82;;;7.15;;
69970;SDS011;57301;50.328;8.542;2022-11-15T00:50:14;10.27;;;7.13;;
69970;SDS011;57301;50.328;8.542;2022-11-15T00:52:41;9.75;;;6.82;;
69970;SDS011;57301;50.328;8.542;2022-11-15T00:55:09;11.32;;;7.15;;
69970;SDS011;57301;50.328;8.542;2022-11-15T00:57:41;10.30;;;7.10;;
69970;SDS011;57301;50.328;8.542;2022-11-15T01:00:07;10.45;;;6.95;;
69970;SDS011;57301;50.328;8.542;2022-11-15T01:02:34;12.53;;;6.63;;
69970;SDS011;57301;50.328;8.542;2022-11-15T01:05:01;14.93;;;6.95;;
69970;SDS011;57301;50.328;8.542;2022-11-15T01:07:27;10.82;;;6.70;;
69970;SDS011;57301;50.328;8.542;2022-11-15T01:09:54;12.43;;;6.45;;
69970;SDS011;57301;50.328;8.542;2022-11-15T01:12:20;10.15;;;6.30;;
69970;SDS011;57301;50.328;8.542;2022-11-15T01:14:47;10.03;;;6.30;;
69970;SDS011;57301;50.328;8.542;2022-11-15T01:17:13;9.32;;;5.47;;
69970;SDS011;57301;50.328;8.542;2022-11-15T01:19:40;10.40;;;6.65;;
69970;SDS011;57301;50.328;8.542;2022-11-15T01:22:06;12.70;;;6.38;;
69970;SDS011;57301;50.328;8.542;2022-11-15T01:24:32;10.15;;;6.15;;
69970;SDS011;57301;50.328;8.542;2022-11-15T01:26:59;9.33;;;6.10;;
69970;SDS011;57301;50.328;8.542;2022-11-15T01:29:26;10.98;;;6.50;;
69970;SDS011;57301;50.328;8.542;2022-11-15T01:31:52;11.68;;;6.40;;
69970;SDS011;57301;50.328;8.542;2022-11-15T01:34:19;10.07;;;6.30;;
69970;SDS011;57301;50.328;8.542;2022-11-15T01:36:46;14.43;;;6.55;;
69970;SDS011;57301;50.328;8.542;2022-11-15T01:39:13;10.27;;;6.60;;
69970;SDS011;57301;50.328;8.542;2022-11-15T01:41:39;13.25;;;6.50;;
69970;SDS011;57301;50.328;8.542;2022-11-15T01:46:57;10.63;;;6.75;;
69970;SDS011;57301;50.328;8.542;2022-11-15T01:49:27;10.40;;;6.40;;
69970;SDS011;57301;50.328;8.542;2022-11-15T01:51:58;10.33;;;6.53;;
69970;SDS011;57301;50.328;8.542;2022-11-15T01:54:28;11.43;;;6.95;;
69970;SDS011;57301;50.328;8.542;2022-11-15T01:57:05;12.75;;;7.43;;
69970;SDS011;57301;50.328;8.542;2022-11-15T01:59:36;10.52;;;6.95;;
69970;SDS011;57301;50.328;8.542;2022-11-15T02:02:04;10.43;;;7.13;;
69970;SDS011;57301;50.328;8.542;2022-11-15T02:04:32;10.47;;;6.83;;
69970;SDS011;57301;50.328;8.542;2022-11-15T02:07:00;11.80;;;7.10;;
69970;SDS011;57301;50.328;8.542;2022-11-15T02:09:29;13.77;;;7.35;;
69970;SDS011;57301;50.328;8.542;2022-11-15T02:11:56;12.30;;;6.78;;
69970;SDS011;57301;50.328;8.542;2022-11-15T02:14:23;11.25;;;7.18;;
69970;SDS011;57301;50.328;8.542;2022-11-15T02:30:41;10.43;;;6.17;;
69970;SDS011;57301;50.328;8.542;2022-11-15T02:33:17;10.07;;;6.70;;
69970;SDS011;57301;50.328;8.542;2022-11-15T02:41:47;10.70;;;6.60;;
69970;SDS011;57301;50.328;8.542;2022-11-15T02:44:13;11.37;;;6.70;;
69970;SDS011;57301;50.328;8.542;2022-11-15T02:46:53;15.95;;;7.22;;
69970;SDS011;57301;50.328;8.542;2022-11-15T02:49:45;10.02;;;6.07;;
69970;SDS011;57301;50.328;8.542;2022-11-15T02:52:21;9.55;;;6.28;;
69970;SDS011;57301;50.328;8.542;2022-11-15T02:54:53;12.02;;;7.47;;
69970;SDS011;57301;50.328;8.542;2022-11-15T02:57:29;11.27;;;7.47;;
69970;SDS011;57301;50.328;8.542;2022-11-15T03:02:42;11.52;;;7.57;;
69970;SDS011;57301;50.328;8.542;2022-11-15T03:05:25;10.10;;;6.97;;
69970;SDS011;57301;50.328;8.542;2022-11-15T03:10:50;13.83;;;7.30;;
69970;SDS011;57301;50.328;8.542;2022-11-15T03:16:03;13.23;;;7.45;;
69970;SDS011;57301;50.328;8.542;2022-11-15T03:18:38;13.10;;;7.43;;
69970;SDS011;57301;50.328;8.542;2022-11-15T03:21:09;12.00;;;7.57;;
69970;SDS011;57301;50.328;8.542;2022-11-15T03:23:38;13.87;;;6.80;;
69970;SDS011;57301;50.328;8.542;2022-11-15T03:26:07;10.27;;;6.70;;
69970;SDS011;57301;50.328;8.542;2022-11-15T03:28:39;13.90;;;7.63;;
69970;SDS011;57301;50.328;8.542;2022-11-15T03:31:10;10.57;;;6.68;;
69970;SDS011;57301;50.328;8.542;2022-11-15T03:33:59;13.43;;;6.68;;
69970;SDS011;57301;50.328;8.542;2022-11-15T03:36:29;10.60;;;7.50;;
69970;SDS011;57301;50.328;8.542;2022-11-15T03:39:00;10.57;;;6.75;;
69970;SDS011;57301;50.328;8.542;2022-11-15T03:49:35;9.70;;;5.80;;
69970;SDS011;57301;50.328;8.542;2022-11-15T03:52:04;9.18;;;5.78;;
69970;SDS011;57301;50.328;8.542;2022-11-15T03:54:31;13.85;;;6.32;;
69970;SDS011;57301;50.328;8.542;2022-11-15T03:56:58;8.60;;;5.70;;
69970;SDS011;57301;50.328;8.542;2022-11-15T03:59:24;10.65;;;5.80;;
69970;SDS011;57301;50.328;8.542;2022-11-15T04:01:51;8.60;;;5.30;;
69970;SDS011;57301;50.328;8.542;2022-11-15T04:04:17;9.13;;;6.13;;
69970;SDS011;57301;50.328;8.542;2022-11-15T04:06:43;9.73;;;5.78;;
69970;SDS011;57301;50.328;8.542;2022-11-15T04:09:10;8.68;;;5.28;;
69970;SDS011;57301;50.328;8.542;2022-11-15T04:11:37;7.88;;;4.53;;
69970;SDS011;57301;50.328;8.542;2022-11-15T04:14:03;6.33;;;4.07;;
69970;SDS011;57301;50.328;8.542;2022-11-15T04:16:29;9.07;;;4.95;;
69970;SDS011;57301;50.328;8.542;2022-11-15T04:18:56;9.52;;;4.80;;
69970;SDS011;57301;50.328;8.542;2022-11-15T04:21:41;8.65;;;5.32;;
69970;SDS011;57301;50.328;8.542;2022-11-15T04:24:26;9.02;;;5.05;;
69970;SDS011;57301;50.328;8.542;2022-11-15T04:26:52;8.53;;;5.40;;
69970;SDS011;57301;50.328;8.542;2022-11-15T04:29:18;8.65;;;5.07;;
69970;SDS011;57301;50.328;8.542;2022-11-15T04:32:04;9.75;;;5.35;;
69970;SDS011;57301;50.328;8.542;2022-11-15T04:34:31;7.78;;;5.28;;
69970;SDS011;57301;50.328;8.542;2022-11-15T04:36:58;8.77;;;5.68;;
69970;SDS011;57301;50.328;8.542;2022-11-15T04:39:41;9.40;;;5.43;;
69970;SDS011;57301;50.328;8.542;2022-11-15T04:42:09;10.38;;;5.10;;
69970;SDS011;57301;50.328;8.542;2022-11-15T04:44:36;11.00;;;5.82;;
69970;SDS011;57301;50.328;8.542;2022-11-15T04:47:02;10.95;;;6.03;;
69970;SDS011;57301;50.328;8.542;2022-11-15T04:49:29;10.05;;;5.68;;
69970;SDS011;57301;50.328;8.542;2022-11-15T04:51:55;7.77;;;5.20;;
69970;SDS011;57301;50.328;8.542;2022-11-15T04:54:22;10.65;;;5.72;;
69970;SDS011;57301;50.328;8.542;2022-11-15T04:56:48;8.68;;;5.18;;
69970;SDS011;57301;50.328;8.542;2022-11-15T04:59:15;8.00;;;5.25;;
69970;SDS011;57301;50.328;8.542;2022-11-15T05:01:41;8.05;;;5.13;;
69970;SDS011;57301;50.328;8.542;2022-11-15T05:04:10;7.20;;;4.50;;
69970;SDS011;57301;50.328;8.542;2022-11-15T05:06:47;7.80;;;4.75;;
69970;SDS011;57301;50.328;8.542;2022-11-15T05:09:18;8.60;;;5.20;;
69970;SDS011;57301;50.328;8.542;2022-11-15T05:11:46;9.93;;;5.53;;
69970;SDS011;57301;50.328;8.542;2022-11-15T05:14:13;8.80;;;5.15;;
69970;SDS011;57301;50.328;8.542;2022-11-15T05:16:40;10.67;;;5.17;;
69970;SDS011;57301;50.328;8.542;2022-11-15T05:19:06;8.32;;;4.90;;
69970;SDS011;57301;50.328;8.542;2022-11-15T05:21:33;7.53;;;4.40;;
69970;SDS011;57301;50.328;8.542;2022-11-15T05:24:00;5.93;;;3.78;;
69970;SDS011;57301;50.328;8.542;2022-11-15T05:26:27;8.57;;;5.65;;
69970;SDS011;57301;50.328;8.542;2022-11-15T05:28:54;14.07;;;8.53;;
69970;SDS011;57301;50.328;8.542;2022-11-15T05:31:22;7.93;;;4.55;;
69970;SDS011;57301;50.328;8.542;2022-11-15T05:33:50;6.40;;;4.10;;
69970;SDS011;57301;50.328;8.542;2022-11-15T05:36:41;7.18;;;3.67;;
69970;SDS011;57301;50.328;8.542;2022-11-15T05:39:09;9.23;;;4.63;;
69970;SDS011;57301;50.328;8.542;2022-11-15T05:41:37;8.73;;;5.03;;
69970;SDS011;57301;50.328;8.542;2022-11-15T05:44:10;6.70;;;4.65;;
69970;SDS011;57301;50.328;8.542;2022-11-15T05:46:40;8.65;;;4.97;;
69970;SDS011;57301;50.328;8.542;2022-11-15T05:49:09;8.82;;;5.20;;
69970;SDS011;57301;50.328;8.542;2022-11-15T05:51:39;10.07;;;5.13;;
69970;SDS011;57301;50.328;8.542;2022-11-15T05:54:07;8.57;;;5.07;;
69970;SDS011;57301;50.328;8.542;2022-11-15T05:56:34;8.82;;;5.15;;
69970;SDS011;57301;50.328;8.542;2022-11-15T05:59:00;7.40;;;4.82;;
69970;SDS011;57301;50.328;8.542;2022-11-15T06:01:27;9.30;;;5.18;;
69970;SDS011;57301;50.328;8.542;2022-11-15T06:03:54;7.88;;;5.00;;
69970;SDS011;57301;50.328;8.542;2022-11-15T06:06:20;9.10;;;5.60;;
69970;SDS011;57301;50.328;8.542;2022-11-15T06:08:47;8.85;;;4.60;;
69970;SDS011;57301;50.328;8.542;2022-11-15T06:11:13;8.00;;;4.60;;
69970;SDS011;57301;50.328;8.542;2022-11-15T06:13:40;9.07;;;5.20;;
69970;SDS011;57301;50.328;8.542;2022-11-15T06:16:07;7.70;;;5.32;;
69970;SDS011;57301;50.328;8.542;2022-11-15T06:18:34;8.87;;;5.43;;
69970;SDS011;57301;50.328;8.542;2022-11-15T06:21:01;9.93;;;5.63;;
69970;SDS011;57301;50.328;8.542;2022-11-15T06:23:28;9.90;;;6.25;;
69970;SDS011;57301;50.328;8.542;2022-11-15T06:25:57;14.32;;;8.20;;
69970;SDS011;57301;50.328;8.542;2022-11-15T06:28:27;10.68;;;6.22;;
69970;SDS011;57301;50.328;8.542;2022-11-15T06:30:55;16.00;;;7.70;;
69970;SDS011;57301;50.328;8.542;2022-11-15T06:33:21;26.25;;;11.27;;
69970;SDS011;57301;50.328;8.542;2022-11-15T06:35:48;12.38;;;6.93;;
69970;SDS011;57301;50.328;8.542;2022-11-15T06:38:14;12.45;;;6.57;;
69970;SDS011;57301;50.328;8.542;2022-11-15T06:40:40;10.90;;;5.90;;
69970;SDS011;57301;50.328;8.542;2022-11-15T06:43:07;9.70;;;5.60;;
69970;SDS011;57301;50.328;8.542;2022-11-15T06:45:33;11.40;;;6.20;;
69970;SDS011;57301;50.328;8.542;2022-11-15T06:48:00;11.25;;;6.68;;
69970;SDS011;57301;50.328;8.542;2022-11-15T06:50:27;13.77;;;7.13;;
69970;SDS011;57301;50.328;8.542;2022-11-15T06:52:53;11.02;;;6.72;;
69970;SDS011;57301;50.328;8.542;2022-11-15T06:55:20;9.23;;;6.10;;
69970;SDS011;57301;50.328;8.542;2022-11-15T06:57:48;8.80;;;5.88;;
69970;SDS011;57301;50.328;8.542;2022-11-15T07:00:16;10.32;;;6.15;;
69970;SDS011;57301;50.328;8.542;2022-11-15T07:02:43;11.07;;;6.57;;
69970;SDS011;57301;50.328;8.542;2022-11-15T07:05:10;10.75;;;6.78;;
69970;SDS011;57301;50.328;8.542;2022-11-15T07:07:37;10.50;;;6.90;;
69970;SDS011;57301;50.328;8.542;2022-11-15T07:10:05;10.38;;;6.47;;
69970;SDS011;57301;50.328;8.542;2022-11-15T07:12:32;9.52;;;6.55;;
69970;SDS011;57301;50.328;8.542;2022-11-15T07:14:59;11.52;;;6.57;;
69970;SDS011;57301;50.328;8.542;2022-11-15T07:17:26;10.00;;;6.82;;
69970;SDS011;57301;50.328;8.542;2022-11-15T07:19:53;8.87;;;6.27;;
69970;SDS011;57301;50.328;8.542;2022-11-15T07:22:19;11.52;;;6.93;;
69970;SDS011;57301;50.328;8.542;2022-11-15T07:24:46;9.82;;;6.35;;
69970;SDS011;57301;50.328;8.542;2022-11-15T07:27:12;9.93;;;6.50;;
69970;SDS011;57301;50.328;8.542;2022-11-15T07:29:39;11.23;;;7.13;;
69970;SDS011;57301;50.328;8.542;2022-11-15T07:32:06;10.20;;;6.30;;
69970;SDS011;57301;50.328;8.542;2022-11-15T07:34:32;10.18;;;6.13;;
69970;SDS011;57301;50.328;8.542;2022-11-15T07:36:59;10.52;;;6.47;;
69970;SDS011;57301;50.328;8.542;2022-11-15T07:39:26;20.08;;;12.35;;
69970;SDS011;57301;50.328;8.542;2022-11-15T07:41:52;21.45;;;13.05;;
69970;SDS011;57301;50.328;8.542;2022-11-15T07:44:39;12.60;;;8.30;;
69970;SDS011;57301;50.328;8.542;2022-11-15T07:47:05;9.82;;;6.07;;
69970;SDS011;57301;50.328;8.542;2022-11-15T07:49:32;9.32;;;5.78;;
69970;SDS011;57301;50.328;8.542;2022-11-15T07:51:58;10.57;;;5.57;;
69970;SDS011;57301;50.328;8.542;2022-11-15T07:54:25;7.55;;;5.00;;
69970;SDS011;57301;50.328;8.542;2022-11-15T07:56:51;7.13;;;4.30;;
69970;SDS011;57301;50.328;8.542;2022-11-15T07:59:18;11.45;;;7.15;;
69970;SDS011;57301;50.328;8.542;2022-11-15T08:01:45;8.43;;;5.47;;
69970;SDS011;57301;50.328;8.542;2022-11-15T08:04:12;9.15;;;5.45;;
69970;SDS011;57301;50.328;8.542;2022-11-15T08:06:39;8.18;;;5.22;;
69970;SDS011;57301;50.328;8.542;2022-11-15T08:09:05;7.27;;;4.73;;
69970;SDS011;57301;50.328;8.542;2022-11-15T08:11:32;7.22;;;4.60;;
69970;SDS011;57301;50.328;8.542;2022-11-15T08:13:58;7.47;;;4.28;;
69970;SDS011;57301;50.328;8.542;2022-11-15T08:16:25;6.55;;;4.05;;
69970;SDS011;57301;50.328;8.542;2022-11-15T08:18:51;6.38;;;4.47;;
69970;SDS011;57301;50.328;8.542;2022-11-15T08:21:18;8.17;;;4.87;;
69970;SDS011;57301;50.328;8.542;2022-11-15T08:23:46;6.70;;;4.30;;
69970;SDS011;57301;50.328;8.542;2022-11-15T08:26:12;6.15;;;4.07;;
69970;SDS011;57301;50.328;8.542;2022-11-15T08:28:39;6.35;;;4.13;;
69970;SDS011;57301;50.328;8.542;2022-11-15T08:31:05;6.50;;;4.20;;
69970;SDS011;57301;50.328;8.542;2022-11-15T08:33:32;6.60;;;4.27;;
69970;SDS011;57301;50.328;8.542;2022-11-15T08:36:00;6.97;;;4.10;;
69970;SDS011;57301;50.328;8.542;2022-11-15T08:38:26;6.72;;;4.55;;
69970;SDS011;57301;50.328;8.542;2022-11-15T08:40:59;8.07;;;5.13;;
69970;SDS011;57301;50.328;8.542;2022-11-15T08:43:27;8.13;;;4.80;;
69970;SDS011;57301;50.328;8.542;2022-11-15T08:45:57;9.17;;;4.80;;
69970;SDS011;57301;50.328;8.542;2022-11-15T08:48:24;10.63;;;5.10;;
69970;SDS011;57301;50.328;8.542;2022-11-15T08:50:54;7.25;;;5.50;;
69970;SDS011;57301;50.328;8.542;2022-11-15T08:53:21;8.32;;;5.80;;
69970;SDS011;57301;50.328;8.542;2022-11-15T08:55:48;9.80;;;5.45;;
69970;SDS011;57301;50.328;8.542;2022-11-15T08:58:15;8.73;;;5.43;;
69970;SDS011;57301;50.328;8.542;2022-11-15T09:00:42;8.13;;;5.65;;
69970;SDS011;57301;50.328;8.542;2022-11-15T09:03:08;10.38;;;6.72;;
69970;SDS011;57301;50.328;8.542;2022-11-15T09:05:35;10.43;;;6.25;;
69970;SDS011;57301;50.328;8.542;2022-11-15T09:08:03;13.55;;;7.40;;
69970;SDS011;57301;50.328;8.542;2022-11-15T09:10:50;12.17;;;7.47;;
69970;SDS011;57301;50.328;8.542;2022-11-15T09:13:17;13.13;;;6.53;;
69970;SDS011;57301;50.328;8.542;2022-11-15T09:15:43;11.88;;;7.60;;
69970;SDS011;57301;50.328;8.542;2022-11-15T09:18:10;12.52;;;7.43;;
69970;SDS011;57301;50.328;8.542;2022-11-15T09:20:36;12.27;;;7.90;;
69970;SDS011;57301;50.328;8.542;2022-11-15T09:23:03;13.67;;;8.33;;
69970;SDS011;57301;50.328;8.542;2022-11-15T09:25:31;12.25;;;8.40;;
69970;SDS011;57301;50.328;8.542;2022-11-15T09:27:58;14.20;;;7.95;;
69970;SDS011;57301;50.328;8.542;2022-11-15T09:30:25;12.07;;;7.90;;
69970;SDS011;57301;50.328;8.542;2022-11-15T09:32:52;11.80;;;7.30;;
69970;SDS011;57301;50.328;8.542;2022-11-15T09:35:18;11.73;;;7.40;;
69970;SDS011;57301;50.328;8.542;2022-11-15T09:37:45;11.63;;;8.23;;
69970;SDS011;57301;50.328;8.542;2022-11-15T09:40:12;11.75;;;7.97;;
69970;SDS011;57301;50.328;8.542;2022-11-15T09:45:26;11.43;;;7.40;;
69970;SDS011;57301;50.328;8.542;2022-11-15T09:48:03;11.80;;;8.17;;
69970;SDS011;57301;50.328;8.542;2022-11-15T09:50:32;13.70;;;8.23;;
69970;SDS011;57301;50.328;8.542;2022-11-15T09:53:04;11.30;;;7.25;;
69970;SDS011;57301;50.328;8.542;2022-11-15T09:55:38;11.00;;;7.25;;
69970;SDS011;57301;50.328;8.542;2022-11-15T10:01:06;13.77;;;7.80;;
69970;SDS011;57301;50.328;8.542;2022-11-15T10:03:42;12.15;;;7.55;;
69970;SDS011;57301;50.328;8.542;2022-11-15T10:06:21;11.52;;;7.40;;
69970;SDS011;57301;50.328;8.542;2022-11-15T10:11:27;11.20;;;7.35;;
69970;SDS011;57301;50.328;8.542;2022-11-15T10:14:09;10.53;;;7.33;;
69970;SDS011;57301;50.328;8.542;2022-11-15T10:20:05;12.30;;;7.55;;
69970;SDS011;57301;50.328;8.542;2022-11-15T10:22:46;10.10;;;7.03;;
69970;SDS011;57301;50.328;8.542;2022-11-15T10:30:40;11.00;;;7.03;;
69970;SDS011;57301;50.328;8.542;2022-11-15T10:36:13;10.25;;;6.78;;
69970;SDS011;57301;50.328;8.542;2022-11-15T10:46:39;9.90;;;6.75;;
69970;SDS011;57301;50.328;8.542;2022-11-15T10:49:23;10.30;;;6.00;;
69970;SDS011;57301;50.328;8.542;2022-11-15T10:57:17;8.00;;;5.47;;
69970;SDS011;57301;50.328;8.542;2022-11-15T11:00:03;8.02;;;5.43;;
69970;SDS011;57301;50.328;8.542;2022-11-15T11:05:25;9.43;;;5.50;;
69970;SDS011;57301;50.328;8.542;2022-11-15T11:08:00;8.27;;;5.40;;
69970;SDS011;57301;50.328;8.542;2022-11-15T11:10:29;7.00;;;4.80;;
69970;SDS011;57301;50.328;8.542;2022-11-15T11:16:18;6.90;;;4.32;;
69970;SDS011;57301;50.328;8.542;2022-11-15T11:21:35;5.53;;;3.57;;
69970;SDS011;57301;50.328;8.542;2022-11-15T11:24:08;6.30;;;4.10;;
69970;SDS011;57301;50.328;8.542;2022-11-15T11:29:33;5.10;;;3.42;;
69970;SDS011;57301;50.328;8.542;2022-11-15T11:32:29;5.93;;;3.53;;
69970;SDS011;57301;50.328;8.542;2022-11-15T11:35:15;6.47;;;3.27;;
69970;SDS011;57301;50.328;8.542;2022-11-15T11:48:20;6.17;;;3.77;;
69970;SDS011;57301;50.328;8.542;2022-11-15T11:50:59;5.55;;;3.28;;
69970;SDS011;57301;50.328;8.542;2022-11-15T11:53:35;6.50;;;3.75;;
69970;SDS011;57301;50.328;8.542;2022-11-15T11:56:21;5.68;;;3.28;;
69970;SDS011;57301;50.328;8.542;2022-11-15T11:58:53;5.68;;;3.58;;
69970;SDS011;57301;50.328;8.542;2022-11-15T12:01:29;5.87;;;3.30;;
69970;SDS011;57301;50.328;8.542;2022-11-15T12:06:45;7.55;;;5.30;;
69970;SDS011;57301;50.328;8.542;2022-11-15T12:11:50;8.80;;;5.45;;
69970;SDS011;57301;50.328;8.542;2022-11-15T12:17:14;7.80;;;6.20;;
69970;SDS011;57301;50.328;8.542;2022-11-15T12:19:44;9.20;;;6.47;;
69970;SDS011;57301;50.328;8.542;2022-11-15T12:25:03;9.35;;;6.45;;
69970;SDS011;57301;50.328;8.542;2022-11-15T12:27:45;9.67;;;5.67;;
69970;SDS011;57301;50.328;8.542;2022-11-15T12:30:20;8.65;;;6.50;;
69970;SDS011;57301;50.328;8.542;2022-11-15T12:32:49;7.55;;;5.85;;
69970;SDS011;57301;50.328;8.542;2022-11-15T12:35:24;10.82;;;7.25;;
69970;SDS011;57301;50.328;8.542;2022-11-15T12:38:00;10.65;;;7.13;;
69970;SDS011;57301;50.328;8.542;2022-11-15T12:42:59;8.02;;;4.93;;
69970;SDS011;57301;50.328;8.542;2022-11-15T12:45:32;10.70;;;6.97;;
69970;SDS011;57301;50.328;8.542;2022-11-15T13:06:40;10.00;;;6.60;;
69970;SDS011;57301;50.328;8.542;2022-11-15T13:11:55;8.63;;;6.57;;
69970;SDS011;57301;50.328;8.542;2022-11-15T13:19:47;8.67;;;6.20;;
69970;SDS011;57301;50.328;8.542;2022-11-15T13:22:26;8.73;;;6.63;;
69970;SDS011;57301;50.328;8.542;2022-11-15T13:25:37;8.70;;;6.70;;
69970;SDS011;57301;50.328;8.542;2022-11-15T13:33:17;11.77;;;7.03;;
69970;SDS011;57301;50.328;8.542;2022-11-15T13:35:46;10.45;;;7.60;;
69970;SDS011;57301;50.328;8.542;2022-11-15T13:38:19;11.75;;;7.72;;
69970;SDS011;57301;50.328;8.542;2022-11-15T13:40:51;12.18;;;7.75;;
69970;SDS011;57301;50.328;8.542;2022-11-15T13:43:26;13.25;;;9.25;;
69970;SDS011;57301;50.328;8.542;2022-11-15T13:49:00;12.32;;;9.30;;
69970;SDS011;57301;50.328;8.542;2022-11-15T13:59:46;17.93;;;10.67;;
69970;SDS011;57301;50.328;8.542;2022-11-15T14:02:19;15.60;;;10.02;;
69970;SDS011;57301;50.328;8.542;2022-11-15T14:04:53;16.42;;;10.43;;
69970;SDS011;57301;50.328;8.542;2022-11-15T14:07:23;13.10;;;10.57;;
69970;SDS011;57301;50.328;8.542;2022-11-15T14:09:51;14.00;;;10.45;;
69970;SDS011;57301;50.328;8.542;2022-11-15T14:12:22;13.00;;;9.83;;
69970;SDS011;57301;50.328;8.542;2022-11-15T14:14:50;12.90;;;10.27;;
69970;SDS011;57301;50.328;8.542;2022-11-15T14:19:56;12.73;;;9.23;;
69970;SDS011;57301;50.328;8.542;2022-11-15T14:22:24;13.20;;;8.80;;
69970;SDS011;57301;50.328;8.542;2022-11-15T14:30:55;11.60;;;7.38;;
69970;SDS011;57301;50.328;8.542;2022-11-15T14:33:25;11.85;;;7.35;;
69970;SDS011;57301;50.328;8.542;2022-11-15T14:36:01;12.55;;;7.47;;
69970;SDS011;57301;50.328;8.542;2022-11-15T14:38:36;13.47;;;7.60;;
69970;SDS011;57301;50.328;8.542;2022-11-15T14:41:03;10.60;;;7.03;;
69970;SDS011;57301;50.328;8.542;2022-11-15T14:43:29;10.13;;;6.32;;
69970;SDS011;57301;50.328;8.542;2022-11-15T14:45:56;11.48;;;6.97;;
69970;SDS011;57301;50.328;8.542;2022-11-15T14:48:22;11.13;;;6.95;;
69970;SDS011;57301;50.328;8.542;2022-11-15T14:50:49;12.67;;;7.17;;
69970;SDS011;57301;50.328;8.542;2022-11-15T14:53:16;10.30;;;6.13;;
69970;SDS011;57301;50.328;8.542;2022-11-15T14:55:44;10.55;;;6.03;;
69970;SDS011;57301;50.328;8.542;2022-11-15T14:58:10;11.93;;;6.32;;
69970;SDS011;57301;50.328;8.542;2022-11-15T15:00:38;9.27;;;5.57;;
69970;SDS011;57301;50.328;8.542;2022-11-15T15:03:06;9.83;;;5.50;;
69970;SDS011;57301;50.328;8.542;2022-11-15T15:05:37;9.07;;;5.07;;
69970;SDS011;57301;50.328;8.542;2022-11-15T15:08:06;10.20;;;5.53;;
69970;SDS011;57301;50.328;8.542;2022-11-15T15:10:34;8.00;;;4.90;;
69970;SDS011;57301;50.328;8.542;2022-11-15T15:13:10;9.02;;;5.30;;
69970;SDS011;57301;50.328;8.542;2022-11-15T15:15:50;10.23;;;5.13;;
69970;SDS011;57301;50.328;8.542;2022-11-15T15:18:18;11.13;;;5.57;;
69970;SDS011;57301;50.328;8.542;2022-11-15T15:20:54;7.13;;;5.13;;
69970;SDS011;57301;50.328;8.542;2022-11-15T15:23:33;7.13;;;4.90;;
69970;SDS011;57301;50.328;8.542;2022-11-15T15:26:01;9.10;;;4.88;;
69970;SDS011;57301;50.328;8.542;2022-11-15T15:28:28;7.63;;;4.67;;
69970;SDS011;57301;50.328;8.542;2022-11-15T15:31:00;6.40;;;4.60;;
69970;SDS011;57301;50.328;8.542;2022-11-15T15:33:27;6.78;;;3.95;;
69970;SDS011;57301;50.328;8.542;2022-11-15T15:35:53;6.57;;;3.78;;
69970;SDS011;57301;50.328;8.542;2022-11-15T15:38:20;6.95;;;4.45;;
69970;SDS011;57301;50.328;8.542;2022-11-15T15:40:47;8.93;;;5.10;;
69970;SDS011;57301;50.328;8.542;2022-11-15T15:43:16;7.45;;;4.55;;
69970;SDS011;57301;50.328;8.542;2022-11-15T15:45:43;10.88;;;4.97;;
69970;SDS011;57301;50.328;8.542;2022-11-15T15:48:12;7.82;;;5.07;;
69970;SDS011;57301;50.328;8.542;2022-11-15T15:50:39;8.25;;;5.20;;
69970;SDS011;57301;50.328;8.542;2022-11-15T15:53:06;10.00;;;5.13;;
69970;SDS011;57301;50.328;8.542;2022-11-15T15:55:34;7.85;;;4.63;;
69970;SDS011;57301;50.328;8.542;2022-11-15T15:58:01;8.25;;;4.53;;
69970;SDS011;57301;50.328;8.542;2022-11-15T16:00:27;7.35;;;4.90;;
69970;SDS011;57301;50.328;8.542;2022-11-15T16:02:54;8.35;;;4.50;;
69970;SDS011;57301;50.328;8.542;2022-11-15T16:05:21;7.83;;;4.50;;
69970;SDS011;57301;50.328;8.542;2022-11-15T16:07:48;8.32;;;4.30;;
69970;SDS011;57301;50.328;8.542;2022-11-15T16:10:25;6.90;;;4.10;;
69970;SDS011;57301;50.328;8.542;2022-11-15T16:12:53;6.05;;;3.83;;
69970;SDS011;57301;50.328;8.542;2022-11-15T16:15:21;6.88;;;4.15;;
69970;SDS011;57301;50.328;8.542;2022-11-15T16:17:51;7.27;;;3.93;;
69970;SDS011;57301;50.328;8.542;2022-11-15T16:20:24;7.63;;;4.03;;
69970;SDS011;57301;50.328;8.542;2022-11-15T16:22:55;8.52;;;4.60;;
69970;SDS011;57301;50.328;8.542;2022-11-15T16:25:22;5.68;;;3.85;;
69970;SDS011;57301;50.328;8.542;2022-11-15T16:27:49;5.90;;;4.15;;
69970;SDS011;57301;50.328;8.542;2022-11-15T16:30:17;7.57;;;4.40;;
69970;SDS011;57301;50.328;8.542;2022-11-15T16:32:46;6.38;;;4.20;;
69970;SDS011;57301;50.328;8.542;2022-11-15T16:35:13;7.07;;;4.32;;
69970;SDS011;57301;50.328;8.542;2022-11-15T16:37:41;22.83;;;15.45;;
69970;SDS011;57301;50.328;8.542;2022-11-15T16:40:15;8.85;;;4.78;;
69970;SDS011;57301;50.328;8.542;2022-11-15T16:42:46;25.73;;;16.50;;
69970;SDS011;57301;50.328;8.542;2022-11-15T16:45:13;11.45;;;6.57;;
69970;SDS011;57301;50.328;8.542;2022-11-15T16:47:39;9.40;;;5.32;;
69970;SDS011;57301;50.328;8.542;2022-11-15T16:50:06;8.55;;;4.60;;
69970;SDS011;57301;50.328;8.542;2022-11-15T16:52:39;7.18;;;4.70;;
69970;SDS011;57301;50.328;8.542;2022-11-15T16:55:05;7.37;;;4.43;;
69970;SDS011;57301;50.328;8.542;2022-11-15T16:57:32;8.30;;;4.70;;
69970;SDS011;57301;50.328;8.542;2022-11-15T16:59:59;8.38;;;5.07;;
69970;SDS011;57301;50.328;8.542;2022-11-15T17:02:25;10.43;;;6.13;;
69970;SDS011;57301;50.328;8.542;2022-11-15T17:04:52;11.70;;;7.70;;
69970;SDS011;57301;50.328;8.542;2022-11-15T17:07:18;8.13;;;4.53;;
69970;SDS011;57301;50.328;8.542;2022-11-15T17:09:45;9.20;;;5.10;;
69970;SDS011;57301;50.328;8.542;2022-11-15T17:12:11;7.63;;;5.82;;
69970;SDS011;57301;50.328;8.542;2022-11-15T17:14:39;8.45;;;5.40;;
69970;SDS011;57301;50.328;8.542;2022-11-15T17:17:05;7.32;;;4.80;;
69970;SDS011;57301;50.328;8.542;2022-11-15T17:19:32;7.03;;;4.30;;
69970;SDS011;57301;50.328;8.542;2022-11-15T17:21:58;8.05;;;5.95;;
69970;SDS011;57301;50.328;8.542;2022-11-15T17:24:25;9.70;;;5.50;;
69970;SDS011;57301;50.328;8.542;2022-11-15T17:26:51;9.57;;;5.30;;
69970;SDS011;57301;50.328;8.542;2022-11-15T17:29:18;8.55;;;4.57;;
69970;SDS011;57301;50.328;8.542;2022-11-15T17:31:44;5.80;;;4.50;;
69970;SDS011;57301;50.328;8.542;2022-11-15T17:34:11;7.15;;;4.72;;